createdAt,value
2022-12-31T00:02:00.575Z,99.90
2022-12-31T00:05:22.776Z,99.90
2022-12-31T00:08:46.151Z,99.90
2022-12-31T00:12:08.073Z,99.90
2022-12-31T00:15:30.076Z,99.90
2022-12-31T00:18:54.975Z,99.90
2022-12-31T00:22:16.928Z,99.90
2022-12-31T00:25:38.889Z,99.90
2022-12-31T00:29:01.763Z,99.90
2022-12-31T00:32:23.767Z,99.90
2022-12-31T00:35:45.695Z,99.90
2022-12-31T00:39:08.690Z,99.90
2022-12-31T00:42:30.980Z,99.90
2022-12-31T00:45:52.977Z,99.90
2022-12-31T00:49:15.483Z,99.90
2022-12-31T00:52:37.560Z,99.90
2022-12-31T00:56:04.802Z,99.90
2022-12-31T00:59:26.783Z,99.90
2022-12-31T01:02:48.985Z,99.90
2022-12-31T01:06:11.233Z,99.90
2022-12-31T01:09:33.171Z,99.90
2022-12-31T01:12:55.070Z,99.90
2022-12-31T01:16:18.335Z,99.90
2022-12-31T01:19:40.259Z,99.90
2022-12-31T01:23:02.207Z,99.90
2022-12-31T01:26:24.217Z,99.90
2022-12-31T01:29:46.694Z,99.90
2022-12-31T01:33:08.682Z,99.90
2022-12-31T01:36:32.707Z,99.90
2022-12-31T01:39:54.655Z,99.90
2022-12-31T01:43:20.685Z,99.90
2022-12-31T01:46:54.693Z,99.90
2022-12-31T01:50:29.306Z,99.90
2022-12-31T01:53:52.028Z,99.90
2022-12-31T01:57:15.887Z,99.90
2022-12-31T02:00:38.213Z,99.90
2022-12-31T02:04:09.585Z,99.90
2022-12-31T02:07:31.777Z,99.90
2022-12-31T02:10:53.718Z,99.90
2022-12-31T02:14:28.699Z,99.90
2022-12-31T02:18:09.993Z,99.90
2022-12-31T02:21:54.368Z,99.90
2022-12-31T02:25:24.959Z,99.90
2022-12-31T02:29:01.001Z,99.90
2022-12-31T02:32:34.923Z,99.90
2022-12-31T02:36:13.439Z,99.90
2022-12-31T02:39:36.309Z,99.90
2022-12-31T02:42:58.275Z,99.90
2022-12-31T02:46:44.654Z,99.90
2022-12-31T02:50:38.966Z,99.90
2022-12-31T02:54:03.656Z,99.90
2022-12-31T02:57:34.228Z,99.90
2022-12-31T03:01:16.587Z,99.90
2022-12-31T03:04:39.547Z,99.90
2022-12-31T03:08:01.504Z,99.90
2022-12-31T03:11:42.239Z,99.90
2022-12-31T03:15:06.808Z,99.90
2022-12-31T03:18:54.843Z,99.90
2022-12-31T03:22:30.179Z,99.90
2022-12-31T03:25:53.439Z,99.90
2022-12-31T03:29:16.479Z,99.90
2022-12-31T03:32:38.651Z,99.90
2022-12-31T03:36:05.062Z,99.90
2022-12-31T03:39:26.993Z,99.90
2022-12-31T03:42:49.901Z,99.90
2022-12-31T03:46:11.863Z,99.90
2022-12-31T03:49:34.786Z,99.90
2022-12-31T03:52:57.025Z,99.90
2022-12-31T03:56:18.946Z,99.90
2022-12-31T03:59:40.914Z,99.90
2022-12-31T04:03:02.861Z,99.90
2022-12-31T04:06:25.405Z,99.90
2022-12-31T04:09:47.382Z,99.90
2022-12-31T04:13:09.349Z,99.90
2022-12-31T04:16:32.394Z,99.90
2022-12-31T04:19:54.648Z,99.90
2022-12-31T04:23:16.865Z,99.90
2022-12-31T04:26:39.057Z,99.90
2022-12-31T04:30:01.068Z,99.90
2022-12-31T04:33:22.995Z,99.90
2022-12-31T04:36:44.939Z,99.90
2022-12-31T04:40:08.743Z,99.90
2022-12-31T04:43:33.587Z,99.90
2022-12-31T04:46:56.163Z,99.90
2022-12-31T04:50:18.260Z,99.90
2022-12-31T04:53:40.594Z,99.90
2022-12-31T04:57:03.680Z,99.90
2022-12-31T05:00:25.775Z,99.90
2022-12-31T05:03:48.450Z,99.90
2022-12-31T05:07:10.437Z,99.90
2022-12-31T05:10:32.365Z,99.90
2022-12-31T05:13:54.340Z,99.90
2022-12-31T05:17:16.313Z,99.90
2022-12-31T05:20:38.377Z,99.90
2022-12-31T05:24:00.332Z,99.90
2022-12-31T05:27:23.028Z,99.90
2022-12-31T05:30:47.644Z,99.90
2022-12-31T05:34:09.626Z,99.90
2022-12-31T05:37:31.962Z,99.90
2022-12-31T05:41:05.699Z,99.90
2022-12-31T05:44:27.896Z,99.90
2022-12-31T05:47:50.123Z,99.90
2022-12-31T05:51:12.274Z,99.90
2022-12-31T05:54:34.668Z,99.90
2022-12-31T05:57:56.604Z,99.90
2022-12-31T06:01:18.617Z,99.90
2022-12-31T06:04:40.723Z,99.90
2022-12-31T06:08:02.759Z,99.90
2022-12-31T06:11:24.903Z,99.90
2022-12-31T06:14:46.920Z,99.90
2022-12-31T06:18:08.864Z,99.90
2022-12-31T06:21:30.978Z,99.90
2022-12-31T06:24:53.255Z,99.90
2022-12-31T06:28:20.184Z,99.90
2022-12-31T06:31:42.560Z,99.90
2022-12-31T06:35:05.134Z,99.90
2022-12-31T06:38:28.803Z,99.90
2022-12-31T06:41:50.750Z,99.90
2022-12-31T06:45:12.731Z,99.90
2022-12-31T06:48:34.976Z,99.90
2022-12-31T06:51:56.921Z,99.90
2022-12-31T06:55:19.252Z,99.90
2022-12-31T06:58:41.715Z,99.90
2022-12-31T07:02:51.503Z,99.90
2022-12-31T07:06:38.969Z,99.90
2022-12-31T07:10:24.118Z,99.90
2022-12-31T07:13:55.857Z,99.90
2022-12-31T07:17:35.163Z,99.90
2022-12-31T07:20:57.372Z,99.90
2022-12-31T07:24:19.699Z,99.90
2022-12-31T07:28:18.338Z,99.90
2022-12-31T07:31:52.007Z,99.90
2022-12-31T07:35:50.568Z,99.90
2022-12-31T07:39:20.739Z,99.90
2022-12-31T07:42:47.830Z,99.90
2022-12-31T07:47:05.922Z,99.90
2022-12-31T07:50:28.169Z,99.90
2022-12-31T07:53:50.265Z,99.90
2022-12-31T07:57:14.160Z,99.90
2022-12-31T08:00:36.212Z,99.90
2022-12-31T08:04:00.898Z,99.90
2022-12-31T08:07:54.679Z,99.90
2022-12-31T08:11:52.371Z,99.90
2022-12-31T08:15:19.052Z,99.90
2022-12-31T08:18:41.294Z,99.90
2022-12-31T08:22:06.082Z,99.90
2022-12-31T08:25:46.977Z,99.90
2022-12-31T08:29:14.835Z,99.90
2022-12-31T08:32:53.610Z,99.90
2022-12-31T08:36:20.494Z,99.90
2022-12-31T08:40:10.278Z,99.90
2022-12-31T08:43:48.156Z,99.90
2022-12-31T08:47:38.768Z,99.90
2022-12-31T08:51:01.212Z,99.90
2022-12-31T08:54:23.429Z,99.90
2022-12-31T08:57:57.279Z,99.90
2022-12-31T09:01:25.167Z,99.90
2022-12-31T09:05:14.489Z,99.90
2022-12-31T09:09:06.218Z,99.90
2022-12-31T09:12:42.275Z,99.90
2022-12-31T09:16:31.212Z,99.90
2022-12-31T09:19:53.672Z,99.90
2022-12-31T09:23:15.906Z,99.90
2022-12-31T09:27:03.347Z,99.90
2022-12-31T09:30:28.717Z,99.90
2022-12-31T09:34:03.441Z,99.90
2022-12-31T09:37:39.453Z,99.90
2022-12-31T09:41:14.526Z,99.90
2022-12-31T09:44:36.530Z,99.90
2022-12-31T09:48:30.985Z,99.90
2022-12-31T09:52:18.669Z,99.90
2022-12-31T09:55:52.333Z,99.90
2022-12-31T09:59:20.623Z,99.90
2022-12-31T10:03:19.787Z,99.90
2022-12-31T10:07:18.766Z,99.90
2022-12-31T10:10:53.885Z,99.90
2022-12-31T10:14:34.035Z,99.90
2022-12-31T10:18:23.315Z,99.90
2022-12-31T10:22:04.092Z,99.90
2022-12-31T10:25:39.539Z,99.90
2022-12-31T10:29:23.236Z,99.90
2022-12-31T10:33:06.025Z,99.90
2022-12-31T10:36:36.449Z,99.90
2022-12-31T10:40:26.327Z,99.90
2022-12-31T10:44:31.101Z,99.90
2022-12-31T10:48:02.175Z,99.90
2022-12-31T10:51:56.465Z,99.90
2022-12-31T10:55:55.631Z,99.90
2022-12-31T10:59:59.795Z,99.90
2022-12-31T11:03:49.766Z,99.90
2022-12-31T11:07:19.986Z,99.90
2022-12-31T11:10:56.998Z,99.90
2022-12-31T11:14:43.360Z,99.90
2022-12-31T11:18:34.549Z,99.90
2022-12-31T11:22:21.039Z,99.90
2022-12-31T11:25:54.841Z,99.90
2022-12-31T11:29:48.615Z,99.90
2022-12-31T11:33:28.255Z,99.90
2022-12-31T11:37:15.841Z,99.90
2022-12-31T11:41:07.665Z,99.90
2022-12-31T11:44:55.050Z,99.90
2022-12-31T11:48:34.782Z,99.90
2022-12-31T11:52:24.257Z,99.90
2022-12-31T11:56:18.231Z,99.90
2022-12-31T11:59:40.319Z,99.90
2022-12-31T12:03:06.294Z,99.90
2022-12-31T12:06:33.261Z,99.90
2022-12-31T12:09:56.465Z,99.90
2022-12-31T12:13:26.010Z,99.90
2022-12-31T12:17:02.453Z,99.90
2022-12-31T12:20:36.185Z,99.90
2022-12-31T12:23:58.053Z,99.90
2022-12-31T12:27:27.588Z,99.90
2022-12-31T12:30:59.336Z,99.90
2022-12-31T12:34:33.841Z,99.90
2022-12-31T12:38:03.092Z,99.90
2022-12-31T12:41:26.564Z,99.90
2022-12-31T12:44:48.571Z,99.90
2022-12-31T12:48:25.070Z,99.90
2022-12-31T12:51:59.643Z,99.90
2022-12-31T12:55:36.842Z,99.90
2022-12-31T12:59:17.379Z,99.90
2022-12-31T13:03:21.926Z,99.90
2022-12-31T13:06:59.079Z,1.00
2022-12-31T13:10:26.623Z,29.90
2022-12-31T13:14:17.104Z,1.00
2022-12-31T13:17:56.154Z,13.90
2022-12-31T13:21:35.761Z,1.00
2022-12-31T13:25:26.452Z,1.00
2022-12-31T13:28:52.337Z,1.00
2022-12-31T13:32:34.003Z,1.00
2022-12-31T13:36:02.119Z,99.90
2022-12-31T13:39:29.980Z,1.00
2022-12-31T13:43:08.112Z,1.00
2022-12-31T13:46:57.781Z,1.00
2022-12-31T13:50:29.726Z,1.00
2022-12-31T13:54:01.925Z,30.30
2022-12-31T13:57:45.375Z,1.00
2022-12-31T14:01:12.225Z,1.00
2022-12-31T14:04:39.359Z,1.00
2022-12-31T14:08:03.197Z,1.00
2022-12-31T14:11:27.827Z,19.30
2022-12-31T14:15:26.480Z,62.60
2022-12-31T14:18:51.371Z,68.60
2022-12-31T14:22:25.550Z,8.10
2022-12-31T14:25:58.571Z,34.10
2022-12-31T14:29:59.016Z,52.70
2022-12-31T14:33:29.841Z,45.40
2022-12-31T14:37:10.642Z,83.00
2022-12-31T14:40:38.462Z,99.90
2022-12-31T14:44:24.253Z,99.90
2022-12-31T14:48:10.846Z,99.90
2022-12-31T14:51:35.724Z,93.70
2022-12-31T14:55:00.117Z,99.90
2022-12-31T14:58:35.724Z,99.90
2022-12-31T15:01:59.232Z,99.90
2022-12-31T15:05:24.984Z,99.90
2022-12-31T15:09:08.165Z,99.90
2022-12-31T15:13:16.087Z,99.90
2022-12-31T15:16:47.344Z,99.90
2022-12-31T15:20:51.403Z,99.90
2022-12-31T15:24:18.284Z,99.90
2022-12-31T15:27:44.021Z,99.90
2022-12-31T15:31:19.045Z,99.90
2022-12-31T15:34:41.751Z,99.90
2022-12-31T15:38:15.812Z,99.90
2022-12-31T15:42:10.333Z,99.90
2022-12-31T15:45:54.243Z,99.90
2022-12-31T15:49:20.717Z,99.90
2022-12-31T15:52:48.045Z,99.90
2022-12-31T15:56:19.207Z,99.90
2022-12-31T15:59:41.235Z,99.90
2022-12-31T16:03:03.428Z,99.90
2022-12-31T16:06:29.384Z,99.90
2022-12-31T16:09:57.559Z,99.90
2022-12-31T16:13:25.283Z,99.90
2022-12-31T16:16:58.947Z,99.90
2022-12-31T16:20:26.070Z,99.90
2022-12-31T16:23:53.154Z,99.90
2022-12-31T16:27:17.367Z,99.90
2022-12-31T16:30:40.505Z,99.90
2022-12-31T16:34:10.376Z,99.90
2022-12-31T16:37:32.371Z,99.90
2022-12-31T16:41:03.133Z,99.90
2022-12-31T16:44:28.686Z,99.90
2022-12-31T16:47:50.685Z,99.90
2022-12-31T16:51:19.565Z,99.90
2022-12-31T16:54:46.883Z,99.90
2022-12-31T16:58:19.227Z,99.90
2022-12-31T17:01:42.624Z,99.90
2022-12-31T17:05:05.427Z,99.90
2022-12-31T17:08:38.867Z,99.90
2022-12-31T17:12:16.745Z,99.90
2022-12-31T17:15:43.882Z,99.90
2022-12-31T17:19:06.326Z,99.90
2022-12-31T17:22:37.272Z,99.90
2022-12-31T17:26:13.500Z,99.90
2022-12-31T17:29:35.892Z,99.90
2022-12-31T17:33:07.925Z,99.90
2022-12-31T17:36:29.954Z,99.90
2022-12-31T17:39:54.088Z,99.90
2022-12-31T17:43:17.804Z,99.90
2022-12-31T17:46:40.390Z,99.90
2022-12-31T17:50:23.746Z,99.90
2022-12-31T17:53:45.842Z,99.90
2022-12-31T17:57:17.550Z,99.90
2022-12-31T18:00:39.685Z,99.90
2022-12-31T18:04:01.627Z,99.90
2022-12-31T18:07:24.765Z,99.90
2022-12-31T18:10:46.899Z,99.90
2022-12-31T18:14:10.597Z,99.90
2022-12-31T18:17:35.658Z,99.90
2022-12-31T18:21:06.067Z,99.90
2022-12-31T18:24:27.986Z,99.90
2022-12-31T18:27:51.055Z,99.90
2022-12-31T18:31:22.148Z,99.90
2022-12-31T18:34:44.197Z,99.90
2022-12-31T18:38:13.789Z,99.90
2022-12-31T18:41:46.989Z,99.90
2022-12-31T18:45:20.243Z,99.90
2022-12-31T18:48:42.521Z,99.90
2022-12-31T18:52:04.570Z,99.90
2022-12-31T18:55:31.394Z,99.90
2022-12-31T18:58:53.720Z,99.90
2022-12-31T19:02:19.255Z,99.90
2022-12-31T19:05:42.007Z,99.90
2022-12-31T19:09:17.942Z,99.90
2022-12-31T19:12:47.097Z,99.90
2022-12-31T19:16:10.492Z,99.90
2022-12-31T19:19:32.580Z,99.90
2022-12-31T19:22:54.758Z,99.90
2022-12-31T19:26:19.453Z,99.90
2022-12-31T19:29:41.378Z,99.90
2022-12-31T19:33:03.359Z,99.90
2022-12-31T19:36:25.357Z,99.90
2022-12-31T19:39:47.308Z,99.90
2022-12-31T19:43:14.278Z,99.90
2022-12-31T19:46:36.291Z,99.90
2022-12-31T19:49:58.215Z,99.90
2022-12-31T19:53:26.308Z,99.90
2022-12-31T19:56:48.283Z,99.90
2022-12-31T20:00:11.914Z,99.90
2022-12-31T20:03:34.057Z,99.90
2022-12-31T20:06:56.010Z,99.90
2022-12-31T20:10:18.126Z,99.90
2022-12-31T20:13:41.261Z,99.90
2022-12-31T20:17:03.300Z,99.90
2022-12-31T20:20:26.674Z,99.90
2022-12-31T20:23:49.798Z,99.90
2022-12-31T20:27:18.075Z,99.90
2022-12-31T20:30:40.539Z,99.90
2022-12-31T20:34:02.498Z,99.90
2022-12-31T20:37:24.528Z,99.90
2022-12-31T20:40:47.259Z,99.90
2022-12-31T20:44:09.481Z,99.90
2022-12-31T20:47:31.453Z,99.90
2022-12-31T20:50:59.452Z,99.90
2022-12-31T20:54:21.627Z,99.90
2022-12-31T20:57:43.832Z,99.90
2022-12-31T21:01:07.450Z,99.90
2022-12-31T21:04:29.788Z,99.90
2022-12-31T21:07:52.264Z,99.90
2022-12-31T21:11:33.824Z,99.90
2022-12-31T21:14:56.055Z,99.90
2022-12-31T21:18:18.485Z,99.90
2022-12-31T21:21:40.417Z,99.90
2022-12-31T21:25:03.184Z,99.90
2022-12-31T21:28:25.799Z,99.90
2022-12-31T21:31:47.829Z,99.90
2022-12-31T21:38:51.759Z,99.90
2022-12-31T21:42:14.444Z,99.90
2022-12-31T21:45:36.407Z,99.90
2022-12-31T21:48:59.724Z,99.90
2022-12-31T21:52:27.834Z,99.90
2022-12-31T21:56:10.593Z,99.90
2022-12-31T22:00:16.178Z,99.90
2022-12-31T22:03:33.134Z,99.90
2022-12-31T22:06:55.123Z,99.90
2022-12-31T22:10:17.019Z,99.90
2022-12-31T22:13:39.471Z,99.90
2022-12-31T22:17:01.585Z,99.90
2022-12-31T22:20:28.018Z,99.90
2022-12-31T22:23:53.844Z,99.90
2022-12-31T22:27:28.366Z,99.90
2022-12-31T22:30:51.827Z,99.90
2022-12-31T22:34:13.773Z,99.90
2022-12-31T22:37:56.362Z,99.90
2022-12-31T22:41:22.667Z,99.90
2022-12-31T22:44:44.733Z,99.90
2022-12-31T22:48:06.692Z,99.90
2022-12-31T22:51:56.360Z,99.90
2022-12-31T22:55:12.163Z,99.90
2022-12-31T22:58:34.404Z,99.90
2022-12-31T23:01:56.331Z,99.90
2022-12-31T23:05:18.252Z,99.90
2022-12-31T23:08:40.485Z,99.90
2022-12-31T23:12:03.793Z,99.90
2022-12-31T23:15:44.451Z,99.90
2022-12-31T23:19:25.441Z,99.90
2022-12-31T23:23:06.743Z,99.90
2022-12-31T23:26:28.658Z,99.90
2022-12-31T23:29:50.760Z,99.90
2022-12-31T23:33:19.157Z,99.90
2022-12-31T23:36:41.109Z,99.90
2022-12-31T23:40:03.095Z,99.90
2022-12-31T23:43:25.013Z,99.90
2022-12-31T23:46:47.106Z,99.90
2022-12-31T23:50:09.254Z,99.90
2022-12-31T23:53:31.487Z,99.90
2022-12-31T23:56:53.629Z,99.90
